sensor_id;sensor_type;location;lat;lon;timestamp;P1;durP1;ratioP1;P2;durP2;ratioP2
31728;SDS011;18309;43.658;1.312;2023-06-19T00:02:06;21.25;;;9.38;;
31728;SDS011;18309;43.658;1.312;2023-06-19T00:04:31;19.98;;;8.95;;
31728;SDS011;18309;43.658;1.312;2023-06-19T00:07:00;15.57;;;8.10;;
31728;SDS011;18309;43.658;1.312;2023-06-19T00:09:26;18.30;;;8.43;;
31728;SDS011;18309;43.658;1.312;2023-06-19T00:11:51;26.42;;;9.20;;
31728;SDS011;18309;43.658;1.312;2023-06-19T00:14:17;20.20;;;7.30;;
31728;SDS011;18309;43.658;1.312;2023-06-19T00:16:43;28.52;;;8.35;;
31728;SDS011;18309;43.658;1.312;2023-06-19T00:19:09;21.75;;;8.07;;
31728;SDS011;18309;43.658;1.312;2023-06-19T00:21:36;17.45;;;7.50;;
31728;SDS011;18309;43.658;1.312;2023-06-19T00:24:03;21.38;;;8.18;;
31728;SDS011;18309;43.658;1.312;2023-06-19T00:26:29;24.02;;;8.80;;
31728;SDS011;18309;43.658;1.312;2023-06-19T00:28:55;22.33;;;8.27;;
31728;SDS011;18309;43.658;1.312;2023-06-19T00:31:21;21.15;;;8.13;;
31728;SDS011;18309;43.658;1.312;2023-06-19T00:33:46;15.63;;;7.07;;
31728;SDS011;18309;43.658;1.312;2023-06-19T00:36:14;22.50;;;7.53;;
31728;SDS011;18309;43.658;1.312;2023-06-19T00:38:40;16.65;;;7.88;;
31728;SDS011;18309;43.658;1.312;2023-06-19T00:41:07;23.42;;;7.78;;
31728;SDS011;18309;43.658;1.312;2023-06-19T00:43:33;25.13;;;8.43;;
31728;SDS011;18309;43.658;1.312;2023-06-19T00:45:59;22.63;;;7.85;;
31728;SDS011;18309;43.658;1.312;2023-06-19T00:48:26;20.42;;;8.43;;
31728;SDS011;18309;43.658;1.312;2023-06-19T00:50:53;23.23;;;8.38;;
31728;SDS011;18309;43.658;1.312;2023-06-19T00:53:20;16.38;;;7.53;;
31728;SDS011;18309;43.658;1.312;2023-06-19T00:55:47;22.90;;;7.20;;
31728;SDS011;18309;43.658;1.312;2023-06-19T00:58:13;13.40;;;8.15;;
31728;SDS011;18309;43.658;1.312;2023-06-19T01:00:40;14.32;;;6.85;;
31728;SDS011;18309;43.658;1.312;2023-06-19T01:03:05;12.70;;;6.88;;
31728;SDS011;18309;43.658;1.312;2023-06-19T01:05:31;21.77;;;7.65;;
31728;SDS011;18309;43.658;1.312;2023-06-19T01:08:13;23.02;;;8.23;;
31728;SDS011;18309;43.658;1.312;2023-06-19T01:10:51;17.02;;;7.70;;
31728;SDS011;18309;43.658;1.312;2023-06-19T01:13:37;28.23;;;7.72;;
31728;SDS011;18309;43.658;1.312;2023-06-19T01:16:08;16.38;;;6.43;;
31728;SDS011;18309;43.658;1.312;2023-06-19T01:18:36;21.13;;;8.05;;
31728;SDS011;18309;43.658;1.312;2023-06-19T01:21:12;18.77;;;6.88;;
31728;SDS011;18309;43.658;1.312;2023-06-19T01:23:39;22.45;;;7.50;;
31728;SDS011;18309;43.658;1.312;2023-06-19T01:26:08;29.83;;;7.28;;
31728;SDS011;18309;43.658;1.312;2023-06-19T01:28:34;23.25;;;6.97;;
31728;SDS011;18309;43.658;1.312;2023-06-19T01:31:02;21.63;;;6.63;;
31728;SDS011;18309;43.658;1.312;2023-06-19T01:33:33;20.23;;;7.38;;
31728;SDS011;18309;43.658;1.312;2023-06-19T01:36:01;17.60;;;6.28;;
31728;SDS011;18309;43.658;1.312;2023-06-19T01:38:28;15.38;;;6.80;;
31728;SDS011;18309;43.658;1.312;2023-06-19T01:40:55;21.70;;;7.05;;
31728;SDS011;18309;43.658;1.312;2023-06-19T01:43:23;15.15;;;6.65;;
31728;SDS011;18309;43.658;1.312;2023-06-19T01:45:49;18.58;;;5.97;;
31728;SDS011;18309;43.658;1.312;2023-06-19T01:48:15;17.13;;;6.22;;
31728;SDS011;18309;43.658;1.312;2023-06-19T01:50:44;19.42;;;6.80;;
31728;SDS011;18309;43.658;1.312;2023-06-19T01:53:12;13.60;;;5.78;;
31728;SDS011;18309;43.658;1.312;2023-06-19T01:55:38;15.98;;;6.15;;
31728;SDS011;18309;43.658;1.312;2023-06-19T01:58:04;14.60;;;6.55;;
31728;SDS011;18309;43.658;1.312;2023-06-19T02:00:29;14.05;;;6.10;;
31728;SDS011;18309;43.658;1.312;2023-06-19T02:02:57;18.08;;;6.53;;
31728;SDS011;18309;43.658;1.312;2023-06-19T02:05:22;20.48;;;6.97;;
31728;SDS011;18309;43.658;1.312;2023-06-19T02:07:48;23.98;;;6.53;;
31728;SDS011;18309;43.658;1.312;2023-06-19T02:10:14;15.13;;;5.85;;
31728;SDS011;18309;43.658;1.312;2023-06-19T02:12:40;21.55;;;6.55;;
31728;SDS011;18309;43.658;1.312;2023-06-19T02:15:06;15.60;;;6.38;;
31728;SDS011;18309;43.658;1.312;2023-06-19T02:17:32;15.32;;;6.05;;
31728;SDS011;18309;43.658;1.312;2023-06-19T02:19:58;20.25;;;7.10;;
31728;SDS011;18309;43.658;1.312;2023-06-19T02:22:23;13.50;;;5.88;;
31728;SDS011;18309;43.658;1.312;2023-06-19T02:24:49;14.63;;;7.03;;
31728;SDS011;18309;43.658;1.312;2023-06-19T02:27:15;18.60;;;6.68;;
31728;SDS011;18309;43.658;1.312;2023-06-19T02:29:41;14.77;;;6.80;;
31728;SDS011;18309;43.658;1.312;2023-06-19T02:32:07;15.13;;;6.65;;
31728;SDS011;18309;43.658;1.312;2023-06-19T02:34:32;15.20;;;5.93;;
31728;SDS011;18309;43.658;1.312;2023-06-19T02:36:58;29.38;;;6.70;;
31728;SDS011;18309;43.658;1.312;2023-06-19T02:39:24;15.48;;;6.82;;
31728;SDS011;18309;43.658;1.312;2023-06-19T02:41:50;15.73;;;6.65;;
31728;SDS011;18309;43.658;1.312;2023-06-19T02:44:15;15.05;;;5.65;;
31728;SDS011;18309;43.658;1.312;2023-06-19T02:46:41;23.73;;;6.68;;
31728;SDS011;18309;43.658;1.312;2023-06-19T02:49:07;15.82;;;6.22;;
31728;SDS011;18309;43.658;1.312;2023-06-19T02:51:32;20.15;;;6.78;;
31728;SDS011;18309;43.658;1.312;2023-06-19T02:53:58;27.10;;;7.43;;
31728;SDS011;18309;43.658;1.312;2023-06-19T02:56:25;20.17;;;6.80;;
31728;SDS011;18309;43.658;1.312;2023-06-19T02:58:51;16.77;;;6.57;;
31728;SDS011;18309;43.658;1.312;2023-06-19T03:01:17;19.77;;;6.82;;
31728;SDS011;18309;43.658;1.312;2023-06-19T03:03:42;18.13;;;6.78;;
31728;SDS011;18309;43.658;1.312;2023-06-19T03:06:08;15.93;;;6.65;;
31728;SDS011;18309;43.658;1.312;2023-06-19T03:08:34;24.20;;;6.82;;
31728;SDS011;18309;43.658;1.312;2023-06-19T03:11:00;24.40;;;7.07;;
31728;SDS011;18309;43.658;1.312;2023-06-19T03:13:29;23.08;;;6.80;;
31728;SDS011;18309;43.658;1.312;2023-06-19T03:15:57;21.85;;;6.88;;
31728;SDS011;18309;43.658;1.312;2023-06-19T03:18:22;18.77;;;6.43;;
31728;SDS011;18309;43.658;1.312;2023-06-19T03:20:48;15.57;;;6.28;;
31728;SDS011;18309;43.658;1.312;2023-06-19T03:23:13;18.63;;;6.47;;
31728;SDS011;18309;43.658;1.312;2023-06-19T03:25:39;20.23;;;6.65;;
31728;SDS011;18309;43.658;1.312;2023-06-19T03:28:08;14.27;;;6.80;;
31728;SDS011;18309;43.658;1.312;2023-06-19T03:30:33;20.13;;;6.72;;
31728;SDS011;18309;43.658;1.312;2023-06-19T03:32:59;19.27;;;6.80;;
31728;SDS011;18309;43.658;1.312;2023-06-19T03:35:24;23.83;;;7.10;;
31728;SDS011;18309;43.658;1.312;2023-06-19T03:37:50;19.95;;;6.90;;
31728;SDS011;18309;43.658;1.312;2023-06-19T03:40:16;21.90;;;7.70;;
31728;SDS011;18309;43.658;1.312;2023-06-19T03:42:42;19.17;;;7.78;;
31728;SDS011;18309;43.658;1.312;2023-06-19T03:45:08;26.25;;;8.05;;
31728;SDS011;18309;43.658;1.312;2023-06-19T03:47:33;18.20;;;5.60;;
31728;SDS011;18309;43.658;1.312;2023-06-19T03:49:59;20.85;;;7.50;;
31728;SDS011;18309;43.658;1.312;2023-06-19T03:52:25;16.85;;;7.10;;
31728;SDS011;18309;43.658;1.312;2023-06-19T03:54:50;19.27;;;6.47;;
31728;SDS011;18309;43.658;1.312;2023-06-19T03:57:16;21.88;;;6.85;;
31728;SDS011;18309;43.658;1.312;2023-06-19T03:59:42;16.73;;;7.45;;
31728;SDS011;18309;43.658;1.312;2023-06-19T04:02:07;20.45;;;7.40;;
31728;SDS011;18309;43.658;1.312;2023-06-19T04:04:33;13.02;;;7.30;;
31728;SDS011;18309;43.658;1.312;2023-06-19T04:06:59;18.20;;;7.40;;
31728;SDS011;18309;43.658;1.312;2023-06-19T04:09:25;28.08;;;6.85;;
31728;SDS011;18309;43.658;1.312;2023-06-19T04:11:50;18.60;;;7.32;;
31728;SDS011;18309;43.658;1.312;2023-06-19T04:14:16;22.08;;;7.72;;
31728;SDS011;18309;43.658;1.312;2023-06-19T04:16:42;18.27;;;7.32;;
31728;SDS011;18309;43.658;1.312;2023-06-19T04:19:08;14.88;;;7.18;;
31728;SDS011;18309;43.658;1.312;2023-06-19T04:21:33;22.25;;;6.88;;
31728;SDS011;18309;43.658;1.312;2023-06-19T04:23:59;18.73;;;7.30;;
31728;SDS011;18309;43.658;1.312;2023-06-19T04:26:25;20.77;;;7.97;;
31728;SDS011;18309;43.658;1.312;2023-06-19T04:28:50;19.05;;;8.60;;
31728;SDS011;18309;43.658;1.312;2023-06-19T04:31:16;16.55;;;7.45;;
31728;SDS011;18309;43.658;1.312;2023-06-19T04:33:44;20.75;;;7.03;;
31728;SDS011;18309;43.658;1.312;2023-06-19T04:36:10;14.73;;;6.65;;
31728;SDS011;18309;43.658;1.312;2023-06-19T04:38:36;21.85;;;7.82;;
31728;SDS011;18309;43.658;1.312;2023-06-19T04:41:02;26.35;;;8.00;;
31728;SDS011;18309;43.658;1.312;2023-06-19T04:43:27;18.35;;;7.57;;
31728;SDS011;18309;43.658;1.312;2023-06-19T04:45:53;23.00;;;8.13;;
31728;SDS011;18309;43.658;1.312;2023-06-19T04:48:19;29.58;;;7.13;;
31728;SDS011;18309;43.658;1.312;2023-06-19T04:50:44;17.67;;;7.65;;
31728;SDS011;18309;43.658;1.312;2023-06-19T04:53:10;16.13;;;7.95;;
31728;SDS011;18309;43.658;1.312;2023-06-19T04:55:36;19.63;;;7.88;;
31728;SDS011;18309;43.658;1.312;2023-06-19T04:58:02;16.77;;;8.55;;
31728;SDS011;18309;43.658;1.312;2023-06-19T05:00:28;15.40;;;7.05;;
31728;SDS011;18309;43.658;1.312;2023-06-19T05:02:54;25.38;;;8.38;;
31728;SDS011;18309;43.658;1.312;2023-06-19T05:07:51;18.20;;;8.07;;
31728;SDS011;18309;43.658;1.312;2023-06-19T05:10:17;20.98;;;8.10;;
31728;SDS011;18309;43.658;1.312;2023-06-19T05:12:42;26.92;;;7.97;;
31728;SDS011;18309;43.658;1.312;2023-06-19T05:15:08;20.80;;;7.95;;
31728;SDS011;18309;43.658;1.312;2023-06-19T05:17:34;17.05;;;7.97;;
31728;SDS011;18309;43.658;1.312;2023-06-19T05:20:00;14.38;;;7.82;;
31728;SDS011;18309;43.658;1.312;2023-06-19T05:22:26;13.00;;;6.93;;
31728;SDS011;18309;43.658;1.312;2023-06-19T05:24:52;21.27;;;7.38;;
31728;SDS011;18309;43.658;1.312;2023-06-19T05:27:17;14.65;;;8.00;;
31728;SDS011;18309;43.658;1.312;2023-06-19T05:29:43;12.88;;;6.93;;
31728;SDS011;18309;43.658;1.312;2023-06-19T05:32:09;24.52;;;8.15;;
31728;SDS011;18309;43.658;1.312;2023-06-19T05:34:35;21.30;;;8.50;;
31728;SDS011;18309;43.658;1.312;2023-06-19T05:37:01;19.95;;;8.45;;
31728;SDS011;18309;43.658;1.312;2023-06-19T05:39:28;21.27;;;8.18;;
31728;SDS011;18309;43.658;1.312;2023-06-19T05:41:54;16.02;;;7.85;;
31728;SDS011;18309;43.658;1.312;2023-06-19T05:44:20;19.48;;;8.48;;
31728;SDS011;18309;43.658;1.312;2023-06-19T05:46:46;18.45;;;9.65;;
31728;SDS011;18309;43.658;1.312;2023-06-19T05:49:11;19.40;;;10.23;;
31728;SDS011;18309;43.658;1.312;2023-06-19T05:51:37;17.75;;;8.98;;
31728;SDS011;18309;43.658;1.312;2023-06-19T05:54:02;23.70;;;10.05;;
31728;SDS011;18309;43.658;1.312;2023-06-19T05:56:29;29.15;;;9.68;;
31728;SDS011;18309;43.658;1.312;2023-06-19T05:58:58;21.20;;;10.00;;
31728;SDS011;18309;43.658;1.312;2023-06-19T06:01:25;20.58;;;9.93;;
31728;SDS011;18309;43.658;1.312;2023-06-19T06:03:53;19.67;;;10.70;;
31728;SDS011;18309;43.658;1.312;2023-06-19T06:06:19;20.98;;;10.73;;
31728;SDS011;18309;43.658;1.312;2023-06-19T06:08:45;21.10;;;9.95;;
31728;SDS011;18309;43.658;1.312;2023-06-19T06:11:10;30.98;;;10.88;;
31728;SDS011;18309;43.658;1.312;2023-06-19T06:13:36;20.67;;;9.88;;
31728;SDS011;18309;43.658;1.312;2023-06-19T06:16:02;16.90;;;8.57;;
31728;SDS011;18309;43.658;1.312;2023-06-19T06:18:28;19.42;;;8.95;;
31728;SDS011;18309;43.658;1.312;2023-06-19T06:20:53;28.67;;;9.45;;
31728;SDS011;18309;43.658;1.312;2023-06-19T06:23:19;17.27;;;8.98;;
31728;SDS011;18309;43.658;1.312;2023-06-19T06:25:45;18.38;;;9.73;;
31728;SDS011;18309;43.658;1.312;2023-06-19T06:28:11;29.92;;;9.82;;
31728;SDS011;18309;43.658;1.312;2023-06-19T06:30:37;16.80;;;9.13;;
31728;SDS011;18309;43.658;1.312;2023-06-19T06:33:03;22.35;;;9.00;;
31728;SDS011;18309;43.658;1.312;2023-06-19T06:35:29;19.48;;;9.02;;
31728;SDS011;18309;43.658;1.312;2023-06-19T06:37:55;22.55;;;9.05;;
31728;SDS011;18309;43.658;1.312;2023-06-19T06:40:21;16.90;;;9.10;;
31728;SDS011;18309;43.658;1.312;2023-06-19T06:42:46;18.08;;;9.27;;
31728;SDS011;18309;43.658;1.312;2023-06-19T06:45:12;13.43;;;8.80;;
31728;SDS011;18309;43.658;1.312;2023-06-19T06:47:38;17.38;;;9.27;;
31728;SDS011;18309;43.658;1.312;2023-06-19T06:50:05;18.30;;;8.98;;
31728;SDS011;18309;43.658;1.312;2023-06-19T06:52:32;16.33;;;8.73;;
31728;SDS011;18309;43.658;1.312;2023-06-19T06:54:57;23.40;;;9.63;;
31728;SDS011;18309;43.658;1.312;2023-06-19T06:57:23;15.18;;;9.15;;
31728;SDS011;18309;43.658;1.312;2023-06-19T06:59:49;15.77;;;8.52;;
31728;SDS011;18309;43.658;1.312;2023-06-19T07:02:15;15.50;;;8.88;;
31728;SDS011;18309;43.658;1.312;2023-06-19T07:04:41;23.00;;;9.65;;
31728;SDS011;18309;43.658;1.312;2023-06-19T07:07:07;21.92;;;9.75;;
31728;SDS011;18309;43.658;1.312;2023-06-19T07:09:33;21.65;;;8.85;;
31728;SDS011;18309;43.658;1.312;2023-06-19T07:11:59;23.98;;;10.07;;
31728;SDS011;18309;43.658;1.312;2023-06-19T07:14:29;19.80;;;10.30;;
31728;SDS011;18309;43.658;1.312;2023-06-19T07:16:55;27.25;;;10.82;;
31728;SDS011;18309;43.658;1.312;2023-06-19T07:19:20;21.23;;;11.10;;
31728;SDS011;18309;43.658;1.312;2023-06-19T07:21:46;29.17;;;13.23;;
31728;SDS011;18309;43.658;1.312;2023-06-19T07:24:12;23.63;;;12.85;;
31728;SDS011;18309;43.658;1.312;2023-06-19T07:26:38;30.33;;;12.80;;
31728;SDS011;18309;43.658;1.312;2023-06-19T07:29:03;27.23;;;13.52;;
31728;SDS011;18309;43.658;1.312;2023-06-19T07:31:29;24.15;;;14.57;;
31728;SDS011;18309;43.658;1.312;2023-06-19T07:33:55;31.70;;;15.13;;
31728;SDS011;18309;43.658;1.312;2023-06-19T07:36:20;25.83;;;14.35;;
31728;SDS011;18309;43.658;1.312;2023-06-19T07:38:46;35.38;;;14.30;;
31728;SDS011;18309;43.658;1.312;2023-06-19T07:41:11;36.85;;;13.65;;
31728;SDS011;18309;43.658;1.312;2023-06-19T07:43:37;24.15;;;12.70;;
31728;SDS011;18309;43.658;1.312;2023-06-19T07:46:03;25.08;;;13.60;;
31728;SDS011;18309;43.658;1.312;2023-06-19T07:48:29;28.00;;;13.43;;
31728;SDS011;18309;43.658;1.312;2023-06-19T07:50:55;26.00;;;12.85;;
31728;SDS011;18309;43.658;1.312;2023-06-19T07:53:21;29.75;;;12.90;;
31728;SDS011;18309;43.658;1.312;2023-06-19T07:55:47;30.30;;;13.68;;
31728;SDS011;18309;43.658;1.312;2023-06-19T07:58:13;21.27;;;13.75;;
31728;SDS011;18309;43.658;1.312;2023-06-19T08:00:39;32.67;;;12.93;;
31728;SDS011;18309;43.658;1.312;2023-06-19T08:03:04;24.80;;;14.35;;
31728;SDS011;18309;43.658;1.312;2023-06-19T08:05:30;21.35;;;12.63;;
31728;SDS011;18309;43.658;1.312;2023-06-19T08:07:56;27.88;;;12.52;;
31728;SDS011;18309;43.658;1.312;2023-06-19T08:10:24;21.33;;;12.95;;
31728;SDS011;18309;43.658;1.312;2023-06-19T08:12:50;21.77;;;12.48;;
31728;SDS011;18309;43.658;1.312;2023-06-19T08:15:16;24.00;;;13.30;;
31728;SDS011;18309;43.658;1.312;2023-06-19T08:17:42;32.15;;;13.35;;
31728;SDS011;18309;43.658;1.312;2023-06-19T08:20:08;27.38;;;13.43;;
31728;SDS011;18309;43.658;1.312;2023-06-19T08:22:34;35.00;;;14.13;;
31728;SDS011;18309;43.658;1.312;2023-06-19T08:25:00;27.27;;;13.07;;
31728;SDS011;18309;43.658;1.312;2023-06-19T08:27:26;30.23;;;14.27;;
31728;SDS011;18309;43.658;1.312;2023-06-19T08:29:51;31.60;;;14.13;;
31728;SDS011;18309;43.658;1.312;2023-06-19T08:32:17;27.33;;;12.90;;
31728;SDS011;18309;43.658;1.312;2023-06-19T08:34:43;20.92;;;12.18;;
31728;SDS011;18309;43.658;1.312;2023-06-19T08:37:08;23.35;;;14.23;;
31728;SDS011;18309;43.658;1.312;2023-06-19T08:39:34;23.10;;;12.40;;
31728;SDS011;18309;43.658;1.312;2023-06-19T08:42:07;26.27;;;12.98;;
31728;SDS011;18309;43.658;1.312;2023-06-19T08:44:33;22.90;;;12.98;;
31728;SDS011;18309;43.658;1.312;2023-06-19T08:47:01;24.83;;;13.32;;
31728;SDS011;18309;43.658;1.312;2023-06-19T08:49:34;29.75;;;14.40;;
31728;SDS011;18309;43.658;1.312;2023-06-19T08:52:03;37.72;;;13.50;;
31728;SDS011;18309;43.658;1.312;2023-06-19T08:54:29;27.60;;;12.95;;
31728;SDS011;18309;43.658;1.312;2023-06-19T08:56:55;25.63;;;12.88;;
31728;SDS011;18309;43.658;1.312;2023-06-19T08:59:21;26.63;;;12.55;;
31728;SDS011;18309;43.658;1.312;2023-06-19T09:01:50;28.48;;;13.05;;
31728;SDS011;18309;43.658;1.312;2023-06-19T09:04:19;31.45;;;13.95;;
31728;SDS011;18309;43.658;1.312;2023-06-19T09:06:49;26.25;;;13.85;;
31728;SDS011;18309;43.658;1.312;2023-06-19T09:09:17;21.50;;;13.35;;
31728;SDS011;18309;43.658;1.312;2023-06-19T09:12:05;24.60;;;15.13;;
31728;SDS011;18309;43.658;1.312;2023-06-19T09:14:36;29.80;;;14.50;;
31728;SDS011;18309;43.658;1.312;2023-06-19T09:17:19;35.60;;;15.00;;
31728;SDS011;18309;43.658;1.312;2023-06-19T09:19:49;24.30;;;13.27;;
31728;SDS011;18309;43.658;1.312;2023-06-19T09:22:16;24.48;;;12.95;;
31728;SDS011;18309;43.658;1.312;2023-06-19T09:24:45;22.83;;;13.20;;
31728;SDS011;18309;43.658;1.312;2023-06-19T09:27:15;28.48;;;13.60;;
31728;SDS011;18309;43.658;1.312;2023-06-19T09:29:44;27.67;;;14.05;;
31728;SDS011;18309;43.658;1.312;2023-06-19T09:34:47;25.10;;;14.27;;
31728;SDS011;18309;43.658;1.312;2023-06-19T09:37:15;31.45;;;14.90;;
31728;SDS011;18309;43.658;1.312;2023-06-19T09:40:03;29.17;;;14.30;;
31728;SDS011;18309;43.658;1.312;2023-06-19T09:42:39;23.58;;;14.40;;
31728;SDS011;18309;43.658;1.312;2023-06-19T09:45:11;28.98;;;14.93;;
31728;SDS011;18309;43.658;1.312;2023-06-19T09:47:46;28.52;;;14.70;;
31728;SDS011;18309;43.658;1.312;2023-06-19T09:50:16;27.40;;;14.13;;
31728;SDS011;18309;43.658;1.312;2023-06-19T09:52:43;26.45;;;15.60;;
31728;SDS011;18309;43.658;1.312;2023-06-19T09:55:10;25.23;;;13.68;;
31728;SDS011;18309;43.658;1.312;2023-06-19T10:00:07;20.20;;;12.70;;
31728;SDS011;18309;43.658;1.312;2023-06-19T10:02:37;24.52;;;12.85;;
31728;SDS011;18309;43.658;1.312;2023-06-19T10:05:05;21.33;;;12.13;;
31728;SDS011;18309;43.658;1.312;2023-06-19T10:07:35;23.20;;;12.97;;
31728;SDS011;18309;43.658;1.312;2023-06-19T10:10:06;21.30;;;11.70;;
31728;SDS011;18309;43.658;1.312;2023-06-19T10:12:43;19.67;;;11.25;;
31728;SDS011;18309;43.658;1.312;2023-06-19T10:17:36;17.08;;;10.73;;
31728;SDS011;18309;43.658;1.312;2023-06-19T10:20:02;18.05;;;10.50;;
31728;SDS011;18309;43.658;1.312;2023-06-19T10:22:31;17.45;;;10.05;;
31728;SDS011;18309;43.658;1.312;2023-06-19T10:24:57;19.08;;;10.38;;
31728;SDS011;18309;43.658;1.312;2023-06-19T10:27:24;22.58;;;11.48;;
31728;SDS011;18309;43.658;1.312;2023-06-19T10:29:53;18.42;;;10.07;;
31728;SDS011;18309;43.658;1.312;2023-06-19T10:32:20;19.00;;;10.00;;
31728;SDS011;18309;43.658;1.312;2023-06-19T10:34:46;15.80;;;10.27;;
31728;SDS011;18309;43.658;1.312;2023-06-19T10:37:14;18.63;;;10.50;;
31728;SDS011;18309;43.658;1.312;2023-06-19T10:39:40;17.08;;;9.98;;
31728;SDS011;18309;43.658;1.312;2023-06-19T10:42:07;19.27;;;10.07;;
31728;SDS011;18309;43.658;1.312;2023-06-19T10:44:33;16.45;;;9.75;;
31728;SDS011;18309;43.658;1.312;2023-06-19T10:47:00;16.00;;;9.70;;
31728;SDS011;18309;43.658;1.312;2023-06-19T10:49:26;16.45;;;9.73;;
31728;SDS011;18309;43.658;1.312;2023-06-19T10:51:53;18.02;;;9.50;;
31728;SDS011;18309;43.658;1.312;2023-06-19T10:54:24;15.15;;;9.48;;
31728;SDS011;18309;43.658;1.312;2023-06-19T10:56:50;15.32;;;8.65;;
31728;SDS011;18309;43.658;1.312;2023-06-19T10:59:16;13.35;;;8.63;;
31728;SDS011;18309;43.658;1.312;2023-06-19T11:01:44;18.02;;;8.88;;
31728;SDS011;18309;43.658;1.312;2023-06-19T11:04:12;20.17;;;9.48;;
31728;SDS011;18309;43.658;1.312;2023-06-19T11:06:39;14.93;;;8.93;;
31728;SDS011;18309;43.658;1.312;2023-06-19T11:09:06;14.57;;;8.63;;
31728;SDS011;18309;43.658;1.312;2023-06-19T11:11:40;23.52;;;8.85;;
31728;SDS011;18309;43.658;1.312;2023-06-19T11:14:07;17.48;;;8.50;;
31728;SDS011;18309;43.658;1.312;2023-06-19T11:16:34;15.18;;;7.85;;
31728;SDS011;18309;43.658;1.312;2023-06-19T11:19:03;13.57;;;7.68;;
31728;SDS011;18309;43.658;1.312;2023-06-19T11:21:32;16.02;;;7.80;;
31728;SDS011;18309;43.658;1.312;2023-06-19T11:24:10;12.90;;;6.50;;
31728;SDS011;18309;43.658;1.312;2023-06-19T11:26:56;15.63;;;7.40;;
31728;SDS011;18309;43.658;1.312;2023-06-19T11:29:29;13.23;;;7.32;;
31728;SDS011;18309;43.658;1.312;2023-06-19T11:32:07;14.20;;;7.57;;
31728;SDS011;18309;43.658;1.312;2023-06-19T11:34:40;9.82;;;7.00;;
31728;SDS011;18309;43.658;1.312;2023-06-19T11:39:43;13.30;;;7.13;;
31728;SDS011;18309;43.658;1.312;2023-06-19T11:42:13;15.45;;;7.75;;
31728;SDS011;18309;43.658;1.312;2023-06-19T11:47:30;19.00;;;7.38;;
31728;SDS011;18309;43.658;1.312;2023-06-19T11:49:57;11.40;;;7.10;;
31728;SDS011;18309;43.658;1.312;2023-06-19T11:52:23;19.08;;;7.32;;
31728;SDS011;18309;43.658;1.312;2023-06-19T11:54:49;22.73;;;7.32;;
31728;SDS011;18309;43.658;1.312;2023-06-19T11:57:14;19.88;;;7.70;;
31728;SDS011;18309;43.658;1.312;2023-06-19T11:59:41;17.35;;;6.85;;
31728;SDS011;18309;43.658;1.312;2023-06-19T12:02:07;19.08;;;7.55;;
31728;SDS011;18309;43.658;1.312;2023-06-19T12:04:34;13.35;;;7.07;;
31728;SDS011;18309;43.658;1.312;2023-06-19T12:07:00;23.55;;;6.90;;
31728;SDS011;18309;43.658;1.312;2023-06-19T12:09:25;14.80;;;6.85;;
31728;SDS011;18309;43.658;1.312;2023-06-19T12:11:53;11.30;;;6.38;;
31728;SDS011;18309;43.658;1.312;2023-06-19T12:14:19;21.58;;;7.65;;
31728;SDS011;18309;43.658;1.312;2023-06-19T12:16:46;16.88;;;7.00;;
31728;SDS011;18309;43.658;1.312;2023-06-19T12:19:12;10.38;;;6.18;;
31728;SDS011;18309;43.658;1.312;2023-06-19T12:21:37;14.18;;;6.85;;
31728;SDS011;18309;43.658;1.312;2023-06-19T12:24:04;11.73;;;7.05;;
31728;SDS011;18309;43.658;1.312;2023-06-19T12:26:30;15.73;;;7.32;;
31728;SDS011;18309;43.658;1.312;2023-06-19T12:29:00;30.90;;;8.52;;
31728;SDS011;18309;43.658;1.312;2023-06-19T12:31:26;14.60;;;7.10;;
31728;SDS011;18309;43.658;1.312;2023-06-19T12:33:52;11.15;;;6.05;;
31728;SDS011;18309;43.658;1.312;2023-06-19T12:36:17;12.13;;;6.70;;
31728;SDS011;18309;43.658;1.312;2023-06-19T12:38:43;12.82;;;6.72;;
31728;SDS011;18309;43.658;1.312;2023-06-19T12:41:09;15.50;;;6.20;;
31728;SDS011;18309;43.658;1.312;2023-06-19T12:43:34;12.52;;;6.55;;
31728;SDS011;18309;43.658;1.312;2023-06-19T12:46:00;10.00;;;6.72;;
31728;SDS011;18309;43.658;1.312;2023-06-19T12:48:26;19.70;;;6.90;;
31728;SDS011;18309;43.658;1.312;2023-06-19T12:50:52;10.77;;;6.22;;
31728;SDS011;18309;43.658;1.312;2023-06-19T12:53:18;13.55;;;6.78;;
31728;SDS011;18309;43.658;1.312;2023-06-19T12:55:44;14.30;;;6.10;;
31728;SDS011;18309;43.658;1.312;2023-06-19T12:58:10;15.30;;;6.95;;
31728;SDS011;18309;43.658;1.312;2023-06-19T13:00:36;13.07;;;6.68;;
31728;SDS011;18309;43.658;1.312;2023-06-19T13:03:02;8.60;;;6.30;;
31728;SDS011;18309;43.658;1.312;2023-06-19T13:05:28;11.43;;;6.43;;
31728;SDS011;18309;43.658;1.312;2023-06-19T13:07:54;14.63;;;6.40;;
31728;SDS011;18309;43.658;1.312;2023-06-19T13:10:20;12.15;;;6.35;;
31728;SDS011;18309;43.658;1.312;2023-06-19T13:12:45;11.02;;;6.30;;
31728;SDS011;18309;43.658;1.312;2023-06-19T13:15:11;13.75;;;6.93;;
31728;SDS011;18309;43.658;1.312;2023-06-19T13:17:37;12.45;;;6.28;;
31728;SDS011;18309;43.658;1.312;2023-06-19T13:20:03;11.73;;;6.20;;
31728;SDS011;18309;43.658;1.312;2023-06-19T13:22:30;13.68;;;6.25;;
31728;SDS011;18309;43.658;1.312;2023-06-19T13:24:57;13.52;;;6.75;;
31728;SDS011;18309;43.658;1.312;2023-06-19T13:27:23;10.35;;;6.10;;
31728;SDS011;18309;43.658;1.312;2023-06-19T13:29:48;14.48;;;6.90;;
31728;SDS011;18309;43.658;1.312;2023-06-19T13:32:14;14.02;;;7.07;;
31728;SDS011;18309;43.658;1.312;2023-06-19T13:34:40;14.50;;;6.57;;
31728;SDS011;18309;43.658;1.312;2023-06-19T13:37:05;13.48;;;6.78;;
31728;SDS011;18309;43.658;1.312;2023-06-19T13:39:31;11.10;;;6.82;;
31728;SDS011;18309;43.658;1.312;2023-06-19T13:41:57;11.93;;;6.45;;
31728;SDS011;18309;43.658;1.312;2023-06-19T13:44:25;7.68;;;5.70;;
31728;SDS011;18309;43.658;1.312;2023-06-19T13:46:51;12.10;;;6.57;;
31728;SDS011;18309;43.658;1.312;2023-06-19T13:49:17;11.63;;;6.40;;
31728;SDS011;18309;43.658;1.312;2023-06-19T13:51:43;14.30;;;6.70;;
31728;SDS011;18309;43.658;1.312;2023-06-19T13:54:09;15.85;;;6.43;;
31728;SDS011;18309;43.658;1.312;2023-06-19T13:56:34;7.28;;;5.50;;
31728;SDS011;18309;43.658;1.312;2023-06-19T13:59:02;12.95;;;6.10;;
31728;SDS011;18309;43.658;1.312;2023-06-19T14:01:28;9.25;;;6.07;;
31728;SDS011;18309;43.658;1.312;2023-06-19T14:03:53;12.73;;;6.03;;
31728;SDS011;18309;43.658;1.312;2023-06-19T14:06:19;12.35;;;6.22;;
31728;SDS011;18309;43.658;1.312;2023-06-19T14:08:45;20.48;;;6.65;;
31728;SDS011;18309;43.658;1.312;2023-06-19T14:11:10;11.68;;;7.75;;
31728;SDS011;18309;43.658;1.312;2023-06-19T14:13:36;17.92;;;7.10;;
31728;SDS011;18309;43.658;1.312;2023-06-19T14:16:02;12.88;;;6.85;;
31728;SDS011;18309;43.658;1.312;2023-06-19T14:18:28;13.35;;;7.18;;
31728;SDS011;18309;43.658;1.312;2023-06-19T14:20:54;9.43;;;6.55;;
31728;SDS011;18309;43.658;1.312;2023-06-19T14:23:19;15.55;;;7.30;;
31728;SDS011;18309;43.658;1.312;2023-06-19T14:25:46;11.90;;;6.80;;
31728;SDS011;18309;43.658;1.312;2023-06-19T14:28:11;9.00;;;6.47;;
31728;SDS011;18309;43.658;1.312;2023-06-19T14:30:39;11.70;;;7.07;;
31728;SDS011;18309;43.658;1.312;2023-06-19T14:33:04;11.40;;;6.63;;
31728;SDS011;18309;43.658;1.312;2023-06-19T14:35:30;14.00;;;6.68;;
31728;SDS011;18309;43.658;1.312;2023-06-19T14:37:56;10.45;;;6.57;;
31728;SDS011;18309;43.658;1.312;2023-06-19T14:40:22;10.73;;;7.05;;
31728;SDS011;18309;43.658;1.312;2023-06-19T14:42:47;16.23;;;7.15;;
31728;SDS011;18309;43.658;1.312;2023-06-19T14:45:14;14.38;;;6.97;;